sensor_id;sensor_type;location;lat;lon;timestamp;pressure;altitude;pressure_sealevel;temperature
65765;BMP180;52915;53.718;19.946;2022-07-10T00:01:52;100252.20;;;12.30
65765;BMP180;52915;53.718;19.946;2022-07-10T00:06:56;100248.20;;;12.18
65765;BMP180;52915;53.718;19.946;2022-07-10T00:12:02;100245.40;;;12.20
65765;BMP180;52915;53.718;19.946;2022-07-10T00:17:06;100242.00;;;12.32
65765;BMP180;52915;53.718;19.946;2022-07-10T00:22:11;100232.80;;;12.40
65765;BMP180;52915;53.718;19.946;2022-07-10T00:27:18;100225.40;;;12.30
65765;BMP180;52915;53.718;19.946;2022-07-10T00:32:25;100218.60;;;12.20
65765;BMP180;52915;53.718;19.946;2022-07-10T00:37:30;100215.60;;;12.20
65765;BMP180;52915;53.718;19.946;2022-07-10T00:42:34;100209.40;;;12.30
65765;BMP180;52915;53.718;19.946;2022-07-10T00:47:39;100206.80;;;12.20
65765;BMP180;52915;53.718;19.946;2022-07-10T00:52:43;100199.60;;;12.10
65765;BMP180;52915;53.718;19.946;2022-07-10T00:57:48;100193.20;;;11.90
65765;BMP180;52915;53.718;19.946;2022-07-10T01:02:54;100187.60;;;11.90
65765;BMP180;52915;53.718;19.946;2022-07-10T01:07:58;100184.60;;;12.00
65765;BMP180;52915;53.718;19.946;2022-07-10T01:13:02;100179.60;;;12.00
65765;BMP180;52915;53.718;19.946;2022-07-10T01:18:07;100174.60;;;11.90
65765;BMP180;52915;53.718;19.946;2022-07-10T01:23:12;100172.60;;;11.70
65765;BMP180;52915;53.718;19.946;2022-07-10T01:28:17;100166.40;;;11.70
65765;BMP180;52915;53.718;19.946;2022-07-10T01:33:22;100165.20;;;11.80
65765;BMP180;52915;53.718;19.946;2022-07-10T01:38:26;100165.60;;;11.88
65765;BMP180;52915;53.718;19.946;2022-07-10T01:43:30;100160.80;;;11.70
65765;BMP180;52915;53.718;19.946;2022-07-10T01:48:34;100157.00;;;11.50
65765;BMP180;52915;53.718;19.946;2022-07-10T01:53:39;100149.80;;;11.50
65765;BMP180;52915;53.718;19.946;2022-07-10T01:58:44;100152.60;;;11.68
65765;BMP180;52915;53.718;19.946;2022-07-10T02:03:48;100147.00;;;11.70
65765;BMP180;52915;53.718;19.946;2022-07-10T02:09:11;100141.00;;;11.50
65765;BMP180;52915;53.718;19.946;2022-07-10T02:14:15;100138.60;;;11.40
65765;BMP180;52915;53.718;19.946;2022-07-10T02:19:19;100143.40;;;11.50
65765;BMP180;52915;53.718;19.946;2022-07-10T02:24:24;100146.20;;;11.60
65765;BMP180;52915;53.718;19.946;2022-07-10T02:29:28;100144.80;;;11.50
65765;BMP180;52915;53.718;19.946;2022-07-10T02:34:32;100140.20;;;11.32
65765;BMP180;52915;53.718;19.946;2022-07-10T02:39:36;100139.20;;;11.40
65765;BMP180;52915;53.718;19.946;2022-07-10T02:44:41;100137.00;;;11.52
65765;BMP180;52915;53.718;19.946;2022-07-10T02:49:45;100129.80;;;11.60
65765;BMP180;52915;53.718;19.946;2022-07-10T02:54:49;100127.20;;;11.48
65765;BMP180;52915;53.718;19.946;2022-07-10T02:59:54;100126.80;;;11.40
65765;BMP180;52915;53.718;19.946;2022-07-10T03:04:58;100122.00;;;11.58
65765;BMP180;52915;53.718;19.946;2022-07-10T03:10:03;100119.20;;;11.70
65765;BMP180;52915;53.718;19.946;2022-07-10T03:15:08;100120.40;;;11.80
65765;BMP180;52915;53.718;19.946;2022-07-10T03:20:12;100121.20;;;11.80
65765;BMP180;52915;53.718;19.946;2022-07-10T03:25:17;100120.20;;;11.70
65765;BMP180;52915;53.718;19.946;2022-07-10T03:30:21;100124.60;;;11.80
65765;BMP180;52915;53.718;19.946;2022-07-10T03:35:26;100118.40;;;11.94
65765;BMP180;52915;53.718;19.946;2022-07-10T03:40:30;100105.20;;;12.10
65765;BMP180;52915;53.718;19.946;2022-07-10T03:45:34;100107.80;;;12.10
65765;BMP180;52915;53.718;19.946;2022-07-10T03:50:38;100102.60;;;12.20
65765;BMP180;52915;53.718;19.946;2022-07-10T03:55:43;100099.80;;;12.40
65765;BMP180;52915;53.718;19.946;2022-07-10T04:00:47;100092.00;;;12.60
65765;BMP180;52915;53.718;19.946;2022-07-10T04:05:52;100090.40;;;12.60
65765;BMP180;52915;53.718;19.946;2022-07-10T04:10:56;100087.60;;;12.70
65765;BMP180;52915;53.718;19.946;2022-07-10T04:16:00;100089.20;;;13.00
65765;BMP180;52915;53.718;19.946;2022-07-10T04:21:07;100087.60;;;13.10
65765;BMP180;52915;53.718;19.946;2022-07-10T04:26:11;100084.20;;;13.20
65765;BMP180;52915;53.718;19.946;2022-07-10T04:31:15;100085.60;;;13.50
65765;BMP180;52915;53.718;19.946;2022-07-10T04:36:20;100082.60;;;13.60
65765;BMP180;52915;53.718;19.946;2022-07-10T04:41:24;100080.60;;;13.70
65765;BMP180;52915;53.718;19.946;2022-07-10T04:46:28;100079.20;;;13.90
65765;BMP180;52915;53.718;19.946;2022-07-10T04:51:36;100075.80;;;14.06
65765;BMP180;52915;53.718;19.946;2022-07-10T04:56:45;100071.20;;;14.24
65765;BMP180;52915;53.718;19.946;2022-07-10T05:01:49;100070.60;;;14.40
65765;BMP180;52915;53.718;19.946;2022-07-10T05:06:54;100081.80;;;14.60
65765;BMP180;52915;53.718;19.946;2022-07-10T05:11:58;100077.80;;;14.60
65765;BMP180;52915;53.718;19.946;2022-07-10T05:17:02;100076.60;;;14.70
65765;BMP180;52915;53.718;19.946;2022-07-10T05:22:06;100061.00;;;15.00
65765;BMP180;52915;53.718;19.946;2022-07-10T05:27:13;100057.60;;;15.50
65765;BMP180;52915;53.718;19.946;2022-07-10T05:32:17;100056.00;;;15.88
65765;BMP180;52915;53.718;19.946;2022-07-10T05:37:23;100052.00;;;16.24
65765;BMP180;52915;53.718;19.946;2022-07-10T05:42:28;100062.20;;;16.60
65765;BMP180;52915;53.718;19.946;2022-07-10T05:47:33;100048.00;;;16.68
65765;BMP180;52915;53.718;19.946;2022-07-10T05:52:38;100059.00;;;16.88
65765;BMP180;52915;53.718;19.946;2022-07-10T05:57:42;100051.00;;;16.90
65765;BMP180;52915;53.718;19.946;2022-07-10T06:02:46;100048.80;;;17.20
65765;BMP180;52915;53.718;19.946;2022-07-10T06:07:51;100062.40;;;17.10
65765;BMP180;52915;53.718;19.946;2022-07-10T06:12:56;100070.80;;;16.60
65765;BMP180;52915;53.718;19.946;2022-07-10T06:18:00;100065.80;;;16.20
65765;BMP180;52915;53.718;19.946;2022-07-10T06:23:05;100056.40;;;15.90
65765;BMP180;52915;53.718;19.946;2022-07-10T06:28:09;100049.40;;;15.90
65765;BMP180;52915;53.718;19.946;2022-07-10T06:33:13;100048.40;;;16.06
65765;BMP180;52915;53.718;19.946;2022-07-10T06:38:17;100041.80;;;16.40
65765;BMP180;52915;53.718;19.946;2022-07-10T06:43:22;100042.60;;;16.60
65765;BMP180;52915;53.718;19.946;2022-07-10T06:48:28;100036.80;;;16.80
65765;BMP180;52915;53.718;19.946;2022-07-10T06:53:36;100033.00;;;17.00
65765;BMP180;52915;53.718;19.946;2022-07-10T06:58:41;100025.00;;;16.90
65765;BMP180;52915;53.718;19.946;2022-07-10T07:03:45;100029.20;;;16.90
65765;BMP180;52915;53.718;19.946;2022-07-10T07:08:49;100032.20;;;16.90
65765;BMP180;52915;53.718;19.946;2022-07-10T07:13:54;100033.20;;;17.10
65765;BMP180;52915;53.718;19.946;2022-07-10T07:19:00;100029.80;;;17.30
65765;BMP180;52915;53.718;19.946;2022-07-10T07:24:06;100042.40;;;17.20
65765;BMP180;52915;53.718;19.946;2022-07-10T07:29:16;100036.40;;;17.50
65765;BMP180;52915;53.718;19.946;2022-07-10T07:34:22;100037.00;;;17.70
65765;BMP180;52915;53.718;19.946;2022-07-10T07:39:32;100033.60;;;17.78
65765;BMP180;52915;53.718;19.946;2022-07-10T07:44:39;100036.80;;;18.10
65765;BMP180;52915;53.718;19.946;2022-07-10T07:49:44;100036.60;;;18.20
65765;BMP180;52915;53.718;19.946;2022-07-10T07:54:50;100046.00;;;18.04
65765;BMP180;52915;53.718;19.946;2022-07-10T07:59:58;100043.20;;;18.00
65765;BMP180;52915;53.718;19.946;2022-07-10T08:05:08;100036.40;;;18.10
65765;BMP180;52915;53.718;19.946;2022-07-10T08:10:19;100028.40;;;18.30
65765;BMP180;52915;53.718;19.946;2022-07-10T08:15:24;100020.40;;;18.80
65765;BMP180;52915;53.718;19.946;2022-07-10T08:20:29;100011.00;;;19.38
65765;BMP180;52915;53.718;19.946;2022-07-10T08:25:35;100005.00;;;19.94
65765;BMP180;52915;53.718;19.946;2022-07-10T08:30:39;100023.00;;;20.50
65765;BMP180;52915;53.718;19.946;2022-07-10T08:35:46;99989.20;;;20.36
65765;BMP180;52915;53.718;19.946;2022-07-10T08:40:54;99985.00;;;21.10
65765;BMP180;52915;53.718;19.946;2022-07-10T08:46:01;100027.40;;;20.64
65765;BMP180;52915;53.718;19.946;2022-07-10T08:51:09;100038.20;;;19.68
65765;BMP180;52915;53.718;19.946;2022-07-10T08:56:15;100034.60;;;19.06
65765;BMP180;52915;53.718;19.946;2022-07-10T09:01:21;100032.60;;;18.72
65765;BMP180;52915;53.718;19.946;2022-07-10T09:06:30;100024.60;;;18.70
65765;BMP180;52915;53.718;19.946;2022-07-10T09:11:40;100016.00;;;19.10
65765;BMP180;52915;53.718;19.946;2022-07-10T09:16:50;100010.40;;;19.30
65765;BMP180;52915;53.718;19.946;2022-07-10T09:22:08;100008.00;;;19.80
65765;BMP180;52915;53.718;19.946;2022-07-10T09:27:14;100021.60;;;20.08
65765;BMP180;52915;53.718;19.946;2022-07-10T09:32:19;100018.40;;;20.10
65765;BMP180;52915;53.718;19.946;2022-07-10T09:37:30;99992.00;;;19.90
65765;BMP180;52915;53.718;19.946;2022-07-10T09:42:40;100021.80;;;20.70
65765;BMP180;52915;53.718;19.946;2022-07-10T09:47:57;100013.20;;;20.32
65765;BMP180;52915;53.718;19.946;2022-07-10T09:53:08;100018.40;;;20.50
65765;BMP180;52915;53.718;19.946;2022-07-10T09:58:17;100026.00;;;20.66
65765;BMP180;52915;53.718;19.946;2022-07-10T10:03:38;99994.00;;;20.52
65765;BMP180;52915;53.718;19.946;2022-07-10T10:09:09;100007.40;;;21.00
65765;BMP180;52915;53.718;19.946;2022-07-10T10:14:19;100011.60;;;21.40
65765;BMP180;52915;53.718;19.946;2022-07-10T10:19:32;100020.40;;;21.50
65765;BMP180;52915;53.718;19.946;2022-07-10T10:25:00;100005.80;;;21.60
65765;BMP180;52915;53.718;19.946;2022-07-10T10:30:10;99997.20;;;22.12
65765;BMP180;52915;53.718;19.946;2022-07-10T10:35:46;100021.00;;;22.20
65765;BMP180;52915;53.718;19.946;2022-07-10T10:40:53;100044.00;;;21.60
65765;BMP180;52915;53.718;19.946;2022-07-10T10:46:23;100047.00;;;20.58
65765;BMP180;52915;53.718;19.946;2022-07-10T10:57:17;100104.80;;;18.54
65765;BMP180;52915;53.718;19.946;2022-07-10T11:02:36;100107.80;;;17.70
65765;BMP180;52915;53.718;19.946;2022-07-10T11:08:00;100109.60;;;17.10
65765;BMP180;52915;53.718;19.946;2022-07-10T11:13:15;100111.60;;;16.90
65765;BMP180;52915;53.718;19.946;2022-07-10T11:18:23;100114.80;;;16.60
65765;BMP180;52915;53.718;19.946;2022-07-10T11:29:04;100112.20;;;16.00
65765;BMP180;52915;53.718;19.946;2022-07-10T11:34:12;100105.20;;;16.04
65765;BMP180;52915;53.718;19.946;2022-07-10T11:39:17;100104.80;;;16.20
65765;BMP180;52915;53.718;19.946;2022-07-10T11:44:21;100104.40;;;16.20
65765;BMP180;52915;53.718;19.946;2022-07-10T11:49:27;100102.20;;;16.20
65765;BMP180;52915;53.718;19.946;2022-07-10T11:54:36;100111.60;;;16.20
65765;BMP180;52915;53.718;19.946;2022-07-10T11:59:43;100117.00;;;16.30
65765;BMP180;52915;53.718;19.946;2022-07-10T12:04:48;100121.80;;;16.40
65765;BMP180;52915;53.718;19.946;2022-07-10T12:09:53;100129.80;;;16.60
65765;BMP180;52915;53.718;19.946;2022-07-10T12:15:01;100131.20;;;16.80
65765;BMP180;52915;53.718;19.946;2022-07-10T12:20:06;100139.20;;;16.90
65765;BMP180;52915;53.718;19.946;2022-07-10T12:25:14;100151.20;;;17.00
65765;BMP180;52915;53.718;19.946;2022-07-10T12:30:20;100155.00;;;17.16
65765;BMP180;52915;53.718;19.946;2022-07-10T12:35:28;100160.20;;;17.20
65765;BMP180;52915;53.718;19.946;2022-07-10T12:40:35;100173.40;;;17.20
65765;BMP180;52915;53.718;19.946;2022-07-10T12:45:39;100178.00;;;16.80
65765;BMP180;52915;53.718;19.946;2022-07-10T12:50:43;100191.20;;;16.80
65765;BMP180;52915;53.718;19.946;2022-07-10T12:55:50;100187.80;;;16.78
65765;BMP180;52915;53.718;19.946;2022-07-10T13:00:54;100189.20;;;16.90
65765;BMP180;52915;53.718;19.946;2022-07-10T13:05:58;100187.20;;;16.90
65765;BMP180;52915;53.718;19.946;2022-07-10T13:11:03;100177.00;;;17.00
65765;BMP180;52915;53.718;19.946;2022-07-10T13:16:09;100182.40;;;17.00
65765;BMP180;52915;53.718;19.946;2022-07-10T13:21:14;100176.00;;;17.20
65765;BMP180;52915;53.718;19.946;2022-07-10T13:26:19;100175.20;;;17.50
65765;BMP180;52915;53.718;19.946;2022-07-10T13:31:23;100172.80;;;17.60
65765;BMP180;52915;53.718;19.946;2022-07-10T13:36:27;100169.20;;;17.60
65765;BMP180;52915;53.718;19.946;2022-07-10T13:41:33;100165.60;;;17.60
65765;BMP180;52915;53.718;19.946;2022-07-10T13:46:40;100158.80;;;17.60
65765;BMP180;52915;53.718;19.946;2022-07-10T13:51:48;100160.60;;;17.70
65765;BMP180;52915;53.718;19.946;2022-07-10T13:57:00;100158.60;;;17.90
65765;BMP180;52915;53.718;19.946;2022-07-10T14:02:06;100155.00;;;17.90
65765;BMP180;52915;53.718;19.946;2022-07-10T14:07:18;100153.00;;;17.90
65765;BMP180;52915;53.718;19.946;2022-07-10T14:12:23;100158.60;;;18.00
65765;BMP180;52915;53.718;19.946;2022-07-10T14:17:30;100166.80;;;18.10
65765;BMP180;52915;53.718;19.946;2022-07-10T14:22:36;100168.80;;;18.48
65765;BMP180;52915;53.718;19.946;2022-07-10T14:27:41;100175.40;;;19.00
65765;BMP180;52915;53.718;19.946;2022-07-10T14:32:46;100183.20;;;19.38
65765;BMP180;52915;53.718;19.946;2022-07-10T14:37:51;100188.80;;;19.66
65765;BMP180;52915;53.718;19.946;2022-07-10T14:42:56;100189.80;;;19.92
65765;BMP180;52915;53.718;19.946;2022-07-10T14:48:04;100192.80;;;20.42
65765;BMP180;52915;53.718;19.946;2022-07-10T14:53:11;100200.80;;;21.00
65765;BMP180;52915;53.718;19.946;2022-07-10T14:58:16;100189.20;;;21.38
65765;BMP180;52915;53.718;19.946;2022-07-10T15:03:22;100197.00;;;21.80
65765;BMP180;52915;53.718;19.946;2022-07-10T15:08:28;100199.80;;;21.50
65765;BMP180;52915;53.718;19.946;2022-07-10T15:13:34;100196.00;;;21.50
65765;BMP180;52915;53.718;19.946;2022-07-10T15:18:42;100212.40;;;20.88
65765;BMP180;52915;53.718;19.946;2022-07-10T15:23:49;100220.40;;;20.42
65765;BMP180;52915;53.718;19.946;2022-07-10T15:28:54;100213.80;;;19.90
65765;BMP180;52915;53.718;19.946;2022-07-10T15:34:08;100205.80;;;19.40
65765;BMP180;52915;53.718;19.946;2022-07-10T15:39:13;100213.20;;;19.02
65765;BMP180;52915;53.718;19.946;2022-07-10T15:44:18;100216.00;;;18.60
65765;BMP180;52915;53.718;19.946;2022-07-10T15:49:23;100213.40;;;18.30
65765;BMP180;52915;53.718;19.946;2022-07-10T15:54:28;100218.20;;;18.02
65765;BMP180;52915;53.718;19.946;2022-07-10T15:59:33;100219.20;;;17.96
65765;BMP180;52915;53.718;19.946;2022-07-10T16:04:39;100224.80;;;17.86
65765;BMP180;52915;53.718;19.946;2022-07-10T16:09:43;100228.40;;;17.40
65765;BMP180;52915;53.718;19.946;2022-07-10T16:14:47;100232.60;;;17.10
65765;BMP180;52915;53.718;19.946;2022-07-10T16:19:52;100227.00;;;17.00
65765;BMP180;52915;53.718;19.946;2022-07-10T16:24:57;100237.00;;;16.70
65765;BMP180;52915;53.718;19.946;2022-07-10T16:30:20;100237.60;;;16.60
65765;BMP180;52915;53.718;19.946;2022-07-10T16:35:24;100232.40;;;16.60
65765;BMP180;52915;53.718;19.946;2022-07-10T16:40:28;100240.00;;;16.70
65765;BMP180;52915;53.718;19.946;2022-07-10T16:45:33;100231.40;;;16.60
65765;BMP180;52915;53.718;19.946;2022-07-10T16:50:39;100219.00;;;16.60
65765;BMP180;52915;53.718;19.946;2022-07-10T16:55:44;100226.20;;;16.60
65765;BMP180;52915;53.718;19.946;2022-07-10T17:00:49;100222.80;;;16.68
65765;BMP180;52915;53.718;19.946;2022-07-10T17:05:53;100220.80;;;16.70
65765;BMP180;52915;53.718;19.946;2022-07-10T17:10:59;100225.20;;;16.60
65765;BMP180;52915;53.718;19.946;2022-07-10T17:16:04;100221.60;;;16.50
65765;BMP180;52915;53.718;19.946;2022-07-10T17:21:10;100222.40;;;16.46
65765;BMP180;52915;53.718;19.946;2022-07-10T17:26:39;100211.40;;;16.50
65765;BMP180;52915;53.718;19.946;2022-07-10T17:31:43;100215.60;;;16.50
65765;BMP180;52915;53.718;19.946;2022-07-10T17:36:48;100213.80;;;16.56
65765;BMP180;52915;53.718;19.946;2022-07-10T17:41:53;100215.40;;;16.50
65765;BMP180;52915;53.718;19.946;2022-07-10T17:46:59;100216.60;;;16.60
65765;BMP180;52915;53.718;19.946;2022-07-10T17:52:06;100221.40;;;16.60
65765;BMP180;52915;53.718;19.946;2022-07-10T17:57:10;100222.60;;;16.50
65765;BMP180;52915;53.718;19.946;2022-07-10T18:02:21;100235.60;;;16.58
65765;BMP180;52915;53.718;19.946;2022-07-10T18:07:30;100242.80;;;16.60
65765;BMP180;52915;53.718;19.946;2022-07-10T18:12:37;100241.60;;;16.50
65765;BMP180;52915;53.718;19.946;2022-07-10T18:17:43;100246.40;;;16.40
65765;BMP180;52915;53.718;19.946;2022-07-10T18:22:50;100253.40;;;16.40
65765;BMP180;52915;53.718;19.946;2022-07-10T18:27:55;100256.60;;;16.20
65765;BMP180;52915;53.718;19.946;2022-07-10T18:33:01;100257.40;;;15.90
65765;BMP180;52915;53.718;19.946;2022-07-10T18:38:24;100266.80;;;15.70
65765;BMP180;52915;53.718;19.946;2022-07-10T18:43:32;100268.60;;;15.54
65765;BMP180;52915;53.718;19.946;2022-07-10T18:48:41;100269.60;;;15.20
65765;BMP180;52915;53.718;19.946;2022-07-10T18:53:46;100274.20;;;15.00
65765;BMP180;52915;53.718;19.946;2022-07-10T18:58:50;100281.60;;;15.00
65765;BMP180;52915;53.718;19.946;2022-07-10T19:03:55;100292.20;;;14.80
65765;BMP180;52915;53.718;19.946;2022-07-10T19:09:01;100287.20;;;14.60
65765;BMP180;52915;53.718;19.946;2022-07-10T19:14:05;100281.80;;;14.50
65765;BMP180;52915;53.718;19.946;2022-07-10T19:19:10;100286.00;;;14.30
65765;BMP180;52915;53.718;19.946;2022-07-10T19:24:14;100281.80;;;14.10
65765;BMP180;52915;53.718;19.946;2022-07-10T19:29:20;100277.80;;;14.00
65765;BMP180;52915;53.718;19.946;2022-07-10T19:34:26;100281.40;;;14.00
65765;BMP180;52915;53.718;19.946;2022-07-10T19:39:31;100285.00;;;13.90
65765;BMP180;52915;53.718;19.946;2022-07-10T19:44:38;100300.20;;;13.70
65765;BMP180;52915;53.718;19.946;2022-07-10T19:49:45;100306.00;;;13.60
65765;BMP180;52915;53.718;19.946;2022-07-10T19:54:50;100307.40;;;13.60
65765;BMP180;52915;53.718;19.946;2022-07-10T19:59:57;100315.20;;;13.60
65765;BMP180;52915;53.718;19.946;2022-07-10T20:05:05;100305.40;;;13.60
65765;BMP180;52915;53.718;19.946;2022-07-10T20:10:10;100311.00;;;13.40
65765;BMP180;52915;53.718;19.946;2022-07-10T20:15:18;100314.20;;;13.20
65765;BMP180;52915;53.718;19.946;2022-07-10T20:20:25;100312.00;;;13.12
65765;BMP180;52915;53.718;19.946;2022-07-10T20:25:31;100310.20;;;13.10
65765;BMP180;52915;53.718;19.946;2022-07-10T20:30:41;100310.20;;;13.10
65765;BMP180;52915;53.718;19.946;2022-07-10T20:35:45;100315.80;;;13.10
65765;BMP180;52915;53.718;19.946;2022-07-10T20:41:09;100317.60;;;13.16
65765;BMP180;52915;53.718;19.946;2022-07-10T20:46:14;100312.40;;;13.10
65765;BMP180;52915;53.718;19.946;2022-07-10T20:51:19;100313.60;;;13.10
65765;BMP180;52915;53.718;19.946;2022-07-10T20:56:23;100314.00;;;12.90
65765;BMP180;52915;53.718;19.946;2022-07-10T21:01:27;100313.20;;;12.80
65765;BMP180;52915;53.718;19.946;2022-07-10T21:06:32;100316.20;;;12.70
65765;BMP180;52915;53.718;19.946;2022-07-10T21:11:36;100315.20;;;12.70
65765;BMP180;52915;53.718;19.946;2022-07-10T21:16:40;100312.20;;;12.62
65765;BMP180;52915;53.718;19.946;2022-07-10T21:21:45;100330.40;;;12.70
65765;BMP180;52915;53.718;19.946;2022-07-10T21:26:49;100329.60;;;12.60
65765;BMP180;52915;53.718;19.946;2022-07-10T21:31:53;100329.40;;;12.70
65765;BMP180;52915;53.718;19.946;2022-07-10T21:36:57;100333.40;;;12.60
65765;BMP180;52915;53.718;19.946;2022-07-10T21:42:02;100334.00;;;12.48
65765;BMP180;52915;53.718;19.946;2022-07-10T21:47:06;100329.60;;;12.48
65765;BMP180;52915;53.718;19.946;2022-07-10T21:52:11;100324.40;;;12.40
65765;BMP180;52915;53.718;19.946;2022-07-10T21:57:15;100323.00;;;12.30
65765;BMP180;52915;53.718;19.946;2022-07-10T22:02:19;100311.40;;;12.30
65765;BMP180;52915;53.718;19.946;2022-07-10T22:07:24;100308.60;;;12.40
65765;BMP180;52915;53.718;19.946;2022-07-10T22:12:31;100300.40;;;12.50
65765;BMP180;52915;53.718;19.946;2022-07-10T22:17:35;100296.20;;;12.60
65765;BMP180;52915;53.718;19.946;2022-07-10T22:22:45;100294.80;;;12.60
65765;BMP180;52915;53.718;19.946;2022-07-10T22:27:50;100287.60;;;12.50
65765;BMP180;52915;53.718;19.946;2022-07-10T22:32:55;100295.00;;;12.50
65765;BMP180;52915;53.718;19.946;2022-07-10T22:38:00;100291.60;;;12.50
65765;BMP180;52915;53.718;19.946;2022-07-10T22:43:04;100304.20;;;12.50
65765;BMP180;52915;53.718;19.946;2022-07-10T22:48:08;100303.00;;;12.60
65765;BMP180;52915;53.718;19.946;2022-07-10T22:53:12;100304.00;;;12.70
65765;BMP180;52915;53.718;19.946;2022-07-10T22:58:17;100294.80;;;12.60
65765;BMP180;52915;53.718;19.946;2022-07-10T23:03:22;100285.40;;;12.50
65765;BMP180;52915;53.718;19.946;2022-07-10T23:08:26;100281.40;;;12.60
65765;BMP180;52915;53.718;19.946;2022-07-10T23:13:31;100275.60;;;12.60
65765;BMP180;52915;53.718;19.946;2022-07-10T23:18:35;100274.20;;;12.60
65765;BMP180;52915;53.718;19.946;2022-07-10T23:23:41;100274.20;;;12.66
65765;BMP180;52915;53.718;19.946;2022-07-10T23:28:46;100273.00;;;12.60
65765;BMP180;52915;53.718;19.946;2022-07-10T23:33:50;100270.80;;;12.60
65765;BMP180;52915;53.718;19.946;2022-07-10T23:38:54;100272.80;;;12.60
65765;BMP180;52915;53.718;19.946;2022-07-10T23:43:58;100269.80;;;12.70
65765;BMP180;52915;53.718;19.946;2022-07-10T23:49:02;100279.00;;;12.78
65765;BMP180;52915;53.718;19.946;2022-07-10T23:54:25;100278.20;;;12.80
65765;BMP180;52915;53.718;19.946;2022-07-10T23:59:30;100282.60;;;12.90
